KHEY/HEY METAR and TAF weather

Enter ICAO airport designator
Station Type Date Time Source
KHEY METAR 2021/04/13 07:58 UTC NOAA

KHEY 130758Z AUTO 00000KT 9SM CLR 12/12 A2998 RMK AO2 SLP153 T01210115


Station Type Date Time Source
KHEY Decoded METAR 2021/04/13 07:58 UTC NOAA

Hanchey AHP / Ozark, AL, United States (KHEY) 31-21N 085-40W
Apr 13, 2021 - 03:58 AM EDT / 2021.04.13 0758 UTC
Wind: Calm:0
Visibility: 9 mile(s):0
Sky conditions: clear
Temperature: 53.8 F (12.1 C)
Dew Point: 52.7 F (11.5 C)
Relative Humidity: 96%
Pressure (altimeter): 29.98 in. Hg (1015 hPa)
ob: KHEY 130758Z AUTO 00000KT 9SM CLR 12/12 A2998 RMK AO2 SLP153 T01210115
cycle: 8

Station Type Date Time Source
KHEY TAF UTC NOAA

Error!

Example: see airport list